sensor_id;sensor_type;location;lat;lon;timestamp;temperature;humidity
20998;DHT22;10657;51.276;6.390;2023-03-12T00:02:00;5.00;99.90
20998;DHT22;10657;51.276;6.390;2023-03-12T00:04:27;4.90;99.90
20998;DHT22;10657;51.276;6.390;2023-03-12T00:06:54;4.80;99.90
20998;DHT22;10657;51.276;6.390;2023-03-12T00:09:20;4.90;99.90
20998;DHT22;10657;51.276;6.390;2023-03-12T00:11:47;4.90;99.90
20998;DHT22;10657;51.276;6.390;2023-03-12T00:14:14;4.90;99.90
20998;DHT22;10657;51.276;6.390;2023-03-12T00:16:40;4.90;99.90
20998;DHT22;10657;51.276;6.390;2023-03-12T00:19:10;4.80;99.90
20998;DHT22;10657;51.276;6.390;2023-03-12T00:21:38;4.80;99.90
20998;DHT22;10657;51.276;6.390;2023-03-12T00:24:06;4.80;99.90
20998;DHT22;10657;51.276;6.390;2023-03-12T00:26:33;4.80;99.90
20998;DHT22;10657;51.276;6.390;2023-03-12T00:29:00;4.80;99.90
20998;DHT22;10657;51.276;6.390;2023-03-12T00:31:29;4.80;99.90
20998;DHT22;10657;51.276;6.390;2023-03-12T00:33:58;4.90;99.90
20998;DHT22;10657;51.276;6.390;2023-03-12T00:36:28;4.90;99.90
20998;DHT22;10657;51.276;6.390;2023-03-12T00:38:56;4.80;99.90
20998;DHT22;10657;51.276;6.390;2023-03-12T00:41:25;4.70;99.90
20998;DHT22;10657;51.276;6.390;2023-03-12T00:43:52;4.80;99.90
20998;DHT22;10657;51.276;6.390;2023-03-12T00:46:19;4.80;99.90
20998;DHT22;10657;51.276;6.390;2023-03-12T00:48:46;4.80;99.90
20998;DHT22;10657;51.276;6.390;2023-03-12T00:51:12;4.80;99.90
20998;DHT22;10657;51.276;6.390;2023-03-12T00:53:39;4.90;99.90
20998;DHT22;10657;51.276;6.390;2023-03-12T00:56:06;4.90;99.90
20998;DHT22;10657;51.276;6.390;2023-03-12T00:58:33;5.10;99.90
20998;DHT22;10657;51.276;6.390;2023-03-12T01:00:59;4.90;99.90
20998;DHT22;10657;51.276;6.390;2023-03-12T01:03:26;4.90;99.90
20998;DHT22;10657;51.276;6.390;2023-03-12T01:05:53;4.90;99.90
20998;DHT22;10657;51.276;6.390;2023-03-12T01:08:21;4.90;99.90
20998;DHT22;10657;51.276;6.390;2023-03-12T01:10:47;4.90;99.90
20998;DHT22;10657;51.276;6.390;2023-03-12T01:13:14;4.80;99.90
20998;DHT22;10657;51.276;6.390;2023-03-12T01:15:41;4.90;99.90
20998;DHT22;10657;51.276;6.390;2023-03-12T01:18:07;5.00;99.90
20998;DHT22;10657;51.276;6.390;2023-03-12T01:20:34;4.80;99.90
20998;DHT22;10657;51.276;6.390;2023-03-12T01:23:01;4.80;99.90
20998;DHT22;10657;51.276;6.390;2023-03-12T01:25:28;4.90;99.90
20998;DHT22;10657;51.276;6.390;2023-03-12T01:27:54;4.70;99.90
20998;DHT22;10657;51.276;6.390;2023-03-12T01:30:21;5.00;99.90
20998;DHT22;10657;51.276;6.390;2023-03-12T01:32:50;5.10;99.90
20998;DHT22;10657;51.276;6.390;2023-03-12T01:35:17;4.70;99.90
20998;DHT22;10657;51.276;6.390;2023-03-12T01:37:44;4.70;99.90
20998;DHT22;10657;51.276;6.390;2023-03-12T01:40:19;4.80;99.90
20998;DHT22;10657;51.276;6.390;2023-03-12T01:42:53;4.80;99.90
20998;DHT22;10657;51.276;6.390;2023-03-12T01:48:18;5.00;99.90
20998;DHT22;10657;51.276;6.390;2023-03-12T01:50:45;4.90;99.90
20998;DHT22;10657;51.276;6.390;2023-03-12T01:53:12;4.90;99.90
20998;DHT22;10657;51.276;6.390;2023-03-12T01:55:39;4.80;99.90
20998;DHT22;10657;51.276;6.390;2023-03-12T01:58:06;4.90;99.90
20998;DHT22;10657;51.276;6.390;2023-03-12T02:00:33;4.60;99.90
20998;DHT22;10657;51.276;6.390;2023-03-12T02:03:05;4.60;99.90
20998;DHT22;10657;51.276;6.390;2023-03-12T02:05:44;4.80;99.90
20998;DHT22;10657;51.276;6.390;2023-03-12T02:08:15;4.80;99.90
20998;DHT22;10657;51.276;6.390;2023-03-12T02:10:43;4.60;99.90
20998;DHT22;10657;51.276;6.390;2023-03-12T02:13:11;4.50;99.90
20998;DHT22;10657;51.276;6.390;2023-03-12T02:15:38;4.70;99.90
20998;DHT22;10657;51.276;6.390;2023-03-12T02:18:07;4.70;99.90
20998;DHT22;10657;51.276;6.390;2023-03-12T02:23:32;4.90;99.90
20998;DHT22;10657;51.276;6.390;2023-03-12T02:26:01;4.60;99.90
20998;DHT22;10657;51.276;6.390;2023-03-12T02:28:29;4.80;99.90
20998;DHT22;10657;51.276;6.390;2023-03-12T02:31:02;4.90;99.90
20998;DHT22;10657;51.276;6.390;2023-03-12T02:33:29;4.90;99.90
20998;DHT22;10657;51.276;6.390;2023-03-12T02:35:56;4.80;99.90
20998;DHT22;10657;51.276;6.390;2023-03-12T02:38:46;4.60;99.90
20998;DHT22;10657;51.276;6.390;2023-03-12T02:41:26;4.60;99.90
20998;DHT22;10657;51.276;6.390;2023-03-12T02:44:01;4.60;99.90
20998;DHT22;10657;51.276;6.390;2023-03-12T02:46:33;4.80;99.90
20998;DHT22;10657;51.276;6.390;2023-03-12T02:49:00;4.50;99.90
20998;DHT22;10657;51.276;6.390;2023-03-12T02:51:27;4.70;99.90
20998;DHT22;10657;51.276;6.390;2023-03-12T02:53:53;4.70;99.90
20998;DHT22;10657;51.276;6.390;2023-03-12T02:56:23;4.50;99.90
20998;DHT22;10657;51.276;6.390;2023-03-12T02:58:50;4.70;99.90
20998;DHT22;10657;51.276;6.390;2023-03-12T03:01:17;4.60;99.90
20998;DHT22;10657;51.276;6.390;2023-03-12T03:03:44;4.60;99.90
20998;DHT22;10657;51.276;6.390;2023-03-12T03:06:11;4.50;99.90
20998;DHT22;10657;51.276;6.390;2023-03-12T03:08:38;4.40;99.90
20998;DHT22;10657;51.276;6.390;2023-03-12T03:11:06;4.40;99.90
20998;DHT22;10657;51.276;6.390;2023-03-12T03:13:33;4.60;99.90
20998;DHT22;10657;51.276;6.390;2023-03-12T03:16:00;4.80;99.90
20998;DHT22;10657;51.276;6.390;2023-03-12T03:18:28;4.80;99.90
20998;DHT22;10657;51.276;6.390;2023-03-12T03:21:01;4.70;99.90
20998;DHT22;10657;51.276;6.390;2023-03-12T03:23:28;4.80;99.90
20998;DHT22;10657;51.276;6.390;2023-03-12T03:25:55;4.60;99.90
20998;DHT22;10657;51.276;6.390;2023-03-12T03:28:24;4.70;99.90
20998;DHT22;10657;51.276;6.390;2023-03-12T03:30:52;4.70;99.90
20998;DHT22;10657;51.276;6.390;2023-03-12T03:33:20;4.70;99.90
20998;DHT22;10657;51.276;6.390;2023-03-12T03:35:47;4.80;99.90
20998;DHT22;10657;51.276;6.390;2023-03-12T03:38:14;4.80;99.90
20998;DHT22;10657;51.276;6.390;2023-03-12T03:40:41;4.70;99.90
20998;DHT22;10657;51.276;6.390;2023-03-12T03:43:08;4.40;99.90
20998;DHT22;10657;51.276;6.390;2023-03-12T03:45:34;4.50;99.90
20998;DHT22;10657;51.276;6.390;2023-03-12T03:48:01;4.50;99.90
20998;DHT22;10657;51.276;6.390;2023-03-12T03:50:27;4.40;99.90
20998;DHT22;10657;51.276;6.390;2023-03-12T03:52:54;4.70;99.90
20998;DHT22;10657;51.276;6.390;2023-03-12T03:55:22;4.50;99.90
20998;DHT22;10657;51.276;6.390;2023-03-12T03:57:48;4.70;99.90
20998;DHT22;10657;51.276;6.390;2023-03-12T04:00:15;4.70;99.90
20998;DHT22;10657;51.276;6.390;2023-03-12T04:02:43;4.50;99.90
20998;DHT22;10657;51.276;6.390;2023-03-12T04:05:10;4.50;99.90
20998;DHT22;10657;51.276;6.390;2023-03-12T04:07:37;4.40;99.90
20998;DHT22;10657;51.276;6.390;2023-03-12T04:10:04;4.50;99.90
20998;DHT22;10657;51.276;6.390;2023-03-12T04:12:31;4.60;99.90
20998;DHT22;10657;51.276;6.390;2023-03-12T04:14:57;4.50;99.90
20998;DHT22;10657;51.276;6.390;2023-03-12T04:17:24;4.40;99.90
20998;DHT22;10657;51.276;6.390;2023-03-12T04:19:51;4.50;99.90
20998;DHT22;10657;51.276;6.390;2023-03-12T04:22:17;4.40;99.90
20998;DHT22;10657;51.276;6.390;2023-03-12T04:24:44;4.50;99.90
20998;DHT22;10657;51.276;6.390;2023-03-12T04:27:11;4.50;99.90
20998;DHT22;10657;51.276;6.390;2023-03-12T04:29:38;4.40;99.90
20998;DHT22;10657;51.276;6.390;2023-03-12T04:32:06;4.30;99.90
20998;DHT22;10657;51.276;6.390;2023-03-12T04:34:33;4.40;99.90
20998;DHT22;10657;51.276;6.390;2023-03-12T04:37:00;4.40;99.90
20998;DHT22;10657;51.276;6.390;2023-03-12T04:39:27;4.40;99.90
20998;DHT22;10657;51.276;6.390;2023-03-12T04:41:54;4.50;99.90
20998;DHT22;10657;51.276;6.390;2023-03-12T04:44:21;4.40;99.90
20998;DHT22;10657;51.276;6.390;2023-03-12T04:46:47;4.60;99.90
20998;DHT22;10657;51.276;6.390;2023-03-12T04:49:14;4.80;99.90
20998;DHT22;10657;51.276;6.390;2023-03-12T04:51:41;4.80;99.90
20998;DHT22;10657;51.276;6.390;2023-03-12T04:54:08;4.90;99.90
20998;DHT22;10657;51.276;6.390;2023-03-12T04:56:34;5.00;99.90
20998;DHT22;10657;51.276;6.390;2023-03-12T04:59:01;4.90;99.90
20998;DHT22;10657;51.276;6.390;2023-03-12T05:01:31;4.80;99.90
20998;DHT22;10657;51.276;6.390;2023-03-12T05:03:59;4.80;99.90
20998;DHT22;10657;51.276;6.390;2023-03-12T05:06:26;5.00;99.90
20998;DHT22;10657;51.276;6.390;2023-03-12T05:08:52;5.00;99.90
20998;DHT22;10657;51.276;6.390;2023-03-12T05:11:20;5.10;99.90
20998;DHT22;10657;51.276;6.390;2023-03-12T05:13:47;4.60;99.90
20998;DHT22;10657;51.276;6.390;2023-03-12T05:16:14;4.40;99.90
20998;DHT22;10657;51.276;6.390;2023-03-12T05:18:42;4.40;99.90
20998;DHT22;10657;51.276;6.390;2023-03-12T05:21:13;4.50;99.90
20998;DHT22;10657;51.276;6.390;2023-03-12T05:23:40;4.40;99.90
20998;DHT22;10657;51.276;6.390;2023-03-12T05:26:29;4.40;99.90
20998;DHT22;10657;51.276;6.390;2023-03-12T05:28:59;4.20;99.90
20998;DHT22;10657;51.276;6.390;2023-03-12T05:31:27;4.40;99.90
20998;DHT22;10657;51.276;6.390;2023-03-12T05:33:54;4.30;99.90
20998;DHT22;10657;51.276;6.390;2023-03-12T05:36:20;4.40;99.90
20998;DHT22;10657;51.276;6.390;2023-03-12T05:38:47;4.50;99.90
20998;DHT22;10657;51.276;6.390;2023-03-12T05:41:23;4.30;99.90
20998;DHT22;10657;51.276;6.390;2023-03-12T05:43:52;4.20;99.90
20998;DHT22;10657;51.276;6.390;2023-03-12T05:46:18;4.40;99.90
20998;DHT22;10657;51.276;6.390;2023-03-12T05:48:45;4.60;99.90
20998;DHT22;10657;51.276;6.390;2023-03-12T05:51:12;4.30;99.90
20998;DHT22;10657;51.276;6.390;2023-03-12T05:53:39;4.40;99.90
20998;DHT22;10657;51.276;6.390;2023-03-12T05:56:09;4.30;99.90
20998;DHT22;10657;51.276;6.390;2023-03-12T05:58:36;4.10;99.90
20998;DHT22;10657;51.276;6.390;2023-03-12T06:01:10;4.50;99.90
20998;DHT22;10657;51.276;6.390;2023-03-12T06:03:37;4.50;99.90
20998;DHT22;10657;51.276;6.390;2023-03-12T06:06:04;4.60;99.90
20998;DHT22;10657;51.276;6.390;2023-03-12T06:08:31;4.70;99.90
20998;DHT22;10657;51.276;6.390;2023-03-12T06:10:57;4.50;99.90
20998;DHT22;10657;51.276;6.390;2023-03-12T06:13:24;4.70;99.90
20998;DHT22;10657;51.276;6.390;2023-03-12T06:15:53;4.60;99.90
20998;DHT22;10657;51.276;6.390;2023-03-12T06:18:20;4.60;99.90
20998;DHT22;10657;51.276;6.390;2023-03-12T06:20:46;4.70;99.90
20998;DHT22;10657;51.276;6.390;2023-03-12T06:23:13;4.80;99.90
20998;DHT22;10657;51.276;6.390;2023-03-12T06:25:39;5.00;99.90
20998;DHT22;10657;51.276;6.390;2023-03-12T06:28:09;5.00;99.90
20998;DHT22;10657;51.276;6.390;2023-03-12T06:30:36;4.90;99.90
20998;DHT22;10657;51.276;6.390;2023-03-12T06:33:02;5.00;99.90
20998;DHT22;10657;51.276;6.390;2023-03-12T06:35:30;4.90;99.90
20998;DHT22;10657;51.276;6.390;2023-03-12T06:37:56;4.90;99.90
20998;DHT22;10657;51.276;6.390;2023-03-12T06:40:23;4.80;99.90
20998;DHT22;10657;51.276;6.390;2023-03-12T06:42:49;4.80;99.90
20998;DHT22;10657;51.276;6.390;2023-03-12T06:45:16;4.90;99.90
20998;DHT22;10657;51.276;6.390;2023-03-12T06:47:43;5.00;99.90
20998;DHT22;10657;51.276;6.390;2023-03-12T06:50:10;4.90;99.90
20998;DHT22;10657;51.276;6.390;2023-03-12T06:52:36;4.80;99.90
20998;DHT22;10657;51.276;6.390;2023-03-12T06:55:03;4.80;99.90
20998;DHT22;10657;51.276;6.390;2023-03-12T06:57:30;4.80;99.90
20998;DHT22;10657;51.276;6.390;2023-03-12T06:59:57;4.90;99.90
20998;DHT22;10657;51.276;6.390;2023-03-12T07:02:24;5.10;99.90
20998;DHT22;10657;51.276;6.390;2023-03-12T07:04:50;4.90;99.90
20998;DHT22;10657;51.276;6.390;2023-03-12T07:07:17;4.50;99.90
20998;DHT22;10657;51.276;6.390;2023-03-12T07:09:45;4.80;99.90
20998;DHT22;10657;51.276;6.390;2023-03-12T07:12:11;4.80;99.90
20998;DHT22;10657;51.276;6.390;2023-03-12T07:14:38;4.90;99.90
20998;DHT22;10657;51.276;6.390;2023-03-12T07:17:05;4.90;99.90
20998;DHT22;10657;51.276;6.390;2023-03-12T07:19:31;4.90;99.90
20998;DHT22;10657;51.276;6.390;2023-03-12T07:21:58;4.70;99.90
20998;DHT22;10657;51.276;6.390;2023-03-12T07:24:25;4.80;99.90
20998;DHT22;10657;51.276;6.390;2023-03-12T07:26:58;4.90;99.90
20998;DHT22;10657;51.276;6.390;2023-03-12T07:29:24;4.90;99.90
20998;DHT22;10657;51.276;6.390;2023-03-12T07:31:51;5.10;99.90
20998;DHT22;10657;51.276;6.390;2023-03-12T07:34:18;5.00;99.90
20998;DHT22;10657;51.276;6.390;2023-03-12T07:36:44;5.00;99.90
20998;DHT22;10657;51.276;6.390;2023-03-12T07:39:11;5.20;99.90
20998;DHT22;10657;51.276;6.390;2023-03-12T07:41:38;5.30;99.90
20998;DHT22;10657;51.276;6.390;2023-03-12T07:44:05;5.10;99.90
20998;DHT22;10657;51.276;6.390;2023-03-12T07:46:32;5.10;99.90
20998;DHT22;10657;51.276;6.390;2023-03-12T07:48:58;5.00;99.90
20998;DHT22;10657;51.276;6.390;2023-03-12T07:51:25;5.10;99.90
20998;DHT22;10657;51.276;6.390;2023-03-12T07:53:52;5.30;99.90
20998;DHT22;10657;51.276;6.390;2023-03-12T07:56:19;5.20;99.90
20998;DHT22;10657;51.276;6.390;2023-03-12T07:58:45;5.20;99.90
20998;DHT22;10657;51.276;6.390;2023-03-12T08:01:12;5.40;99.90
20998;DHT22;10657;51.276;6.390;2023-03-12T08:03:39;5.40;99.90
20998;DHT22;10657;51.276;6.390;2023-03-12T08:06:06;5.40;99.90
20998;DHT22;10657;51.276;6.390;2023-03-12T08:08:33;5.30;99.90
20998;DHT22;10657;51.276;6.390;2023-03-12T08:11:03;5.30;99.90
20998;DHT22;10657;51.276;6.390;2023-03-12T08:13:30;5.30;99.90
20998;DHT22;10657;51.276;6.390;2023-03-12T08:15:57;5.40;99.90
20998;DHT22;10657;51.276;6.390;2023-03-12T08:18:23;5.40;99.90
20998;DHT22;10657;51.276;6.390;2023-03-12T08:20:51;5.30;99.90
20998;DHT22;10657;51.276;6.390;2023-03-12T08:23:19;5.40;99.90
20998;DHT22;10657;51.276;6.390;2023-03-12T08:25:47;5.20;99.90
20998;DHT22;10657;51.276;6.390;2023-03-12T08:28:15;5.30;99.90
20998;DHT22;10657;51.276;6.390;2023-03-12T08:30:46;5.40;99.90
20998;DHT22;10657;51.276;6.390;2023-03-12T08:33:13;5.40;99.90
20998;DHT22;10657;51.276;6.390;2023-03-12T08:35:40;5.40;99.90
20998;DHT22;10657;51.276;6.390;2023-03-12T08:38:07;5.30;99.90
20998;DHT22;10657;51.276;6.390;2023-03-12T08:40:34;5.30;99.90
20998;DHT22;10657;51.276;6.390;2023-03-12T08:43:01;5.40;99.90
20998;DHT22;10657;51.276;6.390;2023-03-12T08:45:27;5.30;99.90
20998;DHT22;10657;51.276;6.390;2023-03-12T08:47:54;5.50;99.90
20998;DHT22;10657;51.276;6.390;2023-03-12T08:50:21;5.60;99.90
20998;DHT22;10657;51.276;6.390;2023-03-12T08:52:49;5.60;99.90
20998;DHT22;10657;51.276;6.390;2023-03-12T08:55:16;5.50;99.90
20998;DHT22;10657;51.276;6.390;2023-03-12T08:57:42;5.60;99.90
20998;DHT22;10657;51.276;6.390;2023-03-12T09:00:09;5.40;99.90
20998;DHT22;10657;51.276;6.390;2023-03-12T09:02:37;5.50;99.90
20998;DHT22;10657;51.276;6.390;2023-03-12T09:05:04;5.60;99.90
20998;DHT22;10657;51.276;6.390;2023-03-12T09:07:31;5.70;99.90
20998;DHT22;10657;51.276;6.390;2023-03-12T09:09:58;5.60;99.90
20998;DHT22;10657;51.276;6.390;2023-03-12T09:12:25;5.60;99.90
20998;DHT22;10657;51.276;6.390;2023-03-12T09:14:51;5.70;99.90
20998;DHT22;10657;51.276;6.390;2023-03-12T09:17:34;5.70;99.90
20998;DHT22;10657;51.276;6.390;2023-03-12T09:20:00;5.80;99.90
20998;DHT22;10657;51.276;6.390;2023-03-12T09:22:28;5.90;99.90
20998;DHT22;10657;51.276;6.390;2023-03-12T09:24:56;5.90;99.90
20998;DHT22;10657;51.276;6.390;2023-03-12T09:27:22;5.90;99.90
20998;DHT22;10657;51.276;6.390;2023-03-12T09:29:49;5.90;99.90
20998;DHT22;10657;51.276;6.390;2023-03-12T09:32:27;5.90;99.90
20998;DHT22;10657;51.276;6.390;2023-03-12T09:34:53;6.00;99.90
20998;DHT22;10657;51.276;6.390;2023-03-12T09:37:20;6.00;99.90
20998;DHT22;10657;51.276;6.390;2023-03-12T09:39:50;6.10;99.90
20998;DHT22;10657;51.276;6.390;2023-03-12T09:42:26;6.10;99.90
20998;DHT22;10657;51.276;6.390;2023-03-12T09:44:57;6.10;99.90
20998;DHT22;10657;51.276;6.390;2023-03-12T09:47:33;6.00;99.90
20998;DHT22;10657;51.276;6.390;2023-03-12T09:53:01;6.10;99.90
20998;DHT22;10657;51.276;6.390;2023-03-12T09:55:36;6.20;99.90
20998;DHT22;10657;51.276;6.390;2023-03-12T09:58:03;6.20;99.90
20998;DHT22;10657;51.276;6.390;2023-03-12T10:00:32;6.20;99.90
20998;DHT22;10657;51.276;6.390;2023-03-12T10:03:09;6.30;99.90
20998;DHT22;10657;51.276;6.390;2023-03-12T10:06:03;6.40;99.90
20998;DHT22;10657;51.276;6.390;2023-03-12T10:09:00;6.40;99.90
20998;DHT22;10657;51.276;6.390;2023-03-12T10:14:16;6.60;99.90
20998;DHT22;10657;51.276;6.390;2023-03-12T10:19:35;6.70;99.90
20998;DHT22;10657;51.276;6.390;2023-03-12T10:27:22;6.90;99.90
20998;DHT22;10657;51.276;6.390;2023-03-12T10:29:52;6.90;99.90
20998;DHT22;10657;51.276;6.390;2023-03-12T10:32:26;7.00;99.90
20998;DHT22;10657;51.276;6.390;2023-03-12T10:34:58;7.10;99.90
20998;DHT22;10657;51.276;6.390;2023-03-12T10:37:42;7.10;99.90
20998;DHT22;10657;51.276;6.390;2023-03-12T10:40:15;7.20;99.90
20998;DHT22;10657;51.276;6.390;2023-03-12T10:42:42;7.20;99.90
20998;DHT22;10657;51.276;6.390;2023-03-12T10:47:39;7.30;99.90
20998;DHT22;10657;51.276;6.390;2023-03-12T10:50:21;7.40;99.90
20998;DHT22;10657;51.276;6.390;2023-03-12T10:52:50;7.50;99.90
20998;DHT22;10657;51.276;6.390;2023-03-12T10:55:26;7.60;99.90
20998;DHT22;10657;51.276;6.390;2023-03-12T10:57:55;7.70;99.90
20998;DHT22;10657;51.276;6.390;2023-03-12T11:00:28;7.70;99.90
20998;DHT22;10657;51.276;6.390;2023-03-12T11:05:28;7.80;99.90
20998;DHT22;10657;51.276;6.390;2023-03-12T11:07:57;7.90;99.90
20998;DHT22;10657;51.276;6.390;2023-03-12T11:10:38;7.90;99.90
20998;DHT22;10657;51.276;6.390;2023-03-12T11:13:27;8.00;99.90
20998;DHT22;10657;51.276;6.390;2023-03-12T11:15:56;8.10;99.90
20998;DHT22;10657;51.276;6.390;2023-03-12T11:23:41;8.30;99.90
20998;DHT22;10657;51.276;6.390;2023-03-12T11:26:19;8.30;99.90
20998;DHT22;10657;51.276;6.390;2023-03-12T11:28:53;8.30;99.90
20998;DHT22;10657;51.276;6.390;2023-03-12T11:31:30;8.40;99.90
20998;DHT22;10657;51.276;6.390;2023-03-12T11:34:07;8.40;99.90
20998;DHT22;10657;51.276;6.390;2023-03-12T11:42:54;8.60;99.90
20998;DHT22;10657;51.276;6.390;2023-03-12T11:48:24;8.60;99.90
20998;DHT22;10657;51.276;6.390;2023-03-12T11:56:52;8.90;99.90
20998;DHT22;10657;51.276;6.390;2023-03-12T12:21:34;9.60;99.90
20998;DHT22;10657;51.276;6.390;2023-03-12T12:24:32;9.60;99.90
20998;DHT22;10657;51.276;6.390;2023-03-12T12:27:11;9.70;99.90
20998;DHT22;10657;51.276;6.390;2023-03-12T12:35:40;10.10;99.90
20998;DHT22;10657;51.276;6.390;2023-03-12T12:38:38;10.10;99.90
20998;DHT22;10657;51.276;6.390;2023-03-12T12:41:13;10.10;99.90
20998;DHT22;10657;51.276;6.390;2023-03-12T12:43:45;10.20;99.90
20998;DHT22;10657;51.276;6.390;2023-03-12T12:46:17;10.20;99.90
20998;DHT22;10657;51.276;6.390;2023-03-12T12:51:54;10.20;99.90
20998;DHT22;10657;51.276;6.390;2023-03-12T12:54:47;10.20;99.90
20998;DHT22;10657;51.276;6.390;2023-03-12T13:02:46;10.10;99.90
20998;DHT22;10657;51.276;6.390;2023-03-12T13:07:45;10.10;99.90
20998;DHT22;10657;51.276;6.390;2023-03-12T13:13:11;10.10;99.90
20998;DHT22;10657;51.276;6.390;2023-03-12T13:15:40;10.10;99.90
20998;DHT22;10657;51.276;6.390;2023-03-12T13:18:17;10.10;99.90
20998;DHT22;10657;51.276;6.390;2023-03-12T13:26:21;10.40;99.90
20998;DHT22;10657;51.276;6.390;2023-03-12T13:33:58;10.70;99.90
20998;DHT22;10657;51.276;6.390;2023-03-12T13:36:26;10.70;99.90
20998;DHT22;10657;51.276;6.390;2023-03-12T13:41:47;10.80;99.90
20998;DHT22;10657;51.276;6.390;2023-03-12T13:49:43;10.80;99.90
20998;DHT22;10657;51.276;6.390;2023-03-12T13:52:25;10.70;99.90
20998;DHT22;10657;51.276;6.390;2023-03-12T13:55:14;10.70;99.90
20998;DHT22;10657;51.276;6.390;2023-03-12T13:57:43;10.80;99.90
20998;DHT22;10657;51.276;6.390;2023-03-12T14:00:18;10.90;99.90
20998;DHT22;10657;51.276;6.390;2023-03-12T14:02:55;11.10;99.90
20998;DHT22;10657;51.276;6.390;2023-03-12T14:05:23;11.10;99.90
20998;DHT22;10657;51.276;6.390;2023-03-12T14:16:19;11.10;99.90
20998;DHT22;10657;51.276;6.390;2023-03-12T14:18:48;11.10;99.90
20998;DHT22;10657;51.276;6.390;2023-03-12T14:21:17;11.10;99.90
20998;DHT22;10657;51.276;6.390;2023-03-12T14:23:50;11.10;99.90
20998;DHT22;10657;51.276;6.390;2023-03-12T14:26:27;11.10;99.90
20998;DHT22;10657;51.276;6.390;2023-03-12T14:31:28;11.00;99.90
20998;DHT22;10657;51.276;6.390;2023-03-12T14:34:12;11.00;99.90
20998;DHT22;10657;51.276;6.390;2023-03-12T14:42:01;11.20;99.90
20998;DHT22;10657;51.276;6.390;2023-03-12T14:44:32;11.30;99.90
20998;DHT22;10657;51.276;6.390;2023-03-12T14:47:04;11.40;99.90
20998;DHT22;10657;51.276;6.390;2023-03-12T14:49:42;11.50;99.90
20998;DHT22;10657;51.276;6.390;2023-03-12T14:52:19;11.50;99.90
20998;DHT22;10657;51.276;6.390;2023-03-12T14:55:01;11.50;99.90
20998;DHT22;10657;51.276;6.390;2023-03-12T14:57:29;11.50;99.90
20998;DHT22;10657;51.276;6.390;2023-03-12T14:59:57;11.50;99.90
20998;DHT22;10657;51.276;6.390;2023-03-12T15:02:25;11.50;99.90
20998;DHT22;10657;51.276;6.390;2023-03-12T15:04:54;11.50;99.90
20998;DHT22;10657;51.276;6.390;2023-03-12T15:07:27;11.50;99.90
20998;DHT22;10657;51.276;6.390;2023-03-12T15:09:55;11.50;99.90
20998;DHT22;10657;51.276;6.390;2023-03-12T15:12:30;11.50;99.90
20998;DHT22;10657;51.276;6.390;2023-03-12T15:15:09;11.50;99.90
20998;DHT22;10657;51.276;6.390;2023-03-12T15:17:42;11.50;99.90
20998;DHT22;10657;51.276;6.390;2023-03-12T15:20:14;11.50;99.90
20998;DHT22;10657;51.276;6.390;2023-03-12T15:22:41;11.50;99.90
20998;DHT22;10657;51.276;6.390;2023-03-12T15:25:26;11.50;99.90
20998;DHT22;10657;51.276;6.390;2023-03-12T15:28:21;11.50;99.90
20998;DHT22;10657;51.276;6.390;2023-03-12T15:31:13;11.50;99.90
20998;DHT22;10657;51.276;6.390;2023-03-12T15:33:42;11.50;99.90
20998;DHT22;10657;51.276;6.390;2023-03-12T15:38:55;11.50;99.90
20998;DHT22;10657;51.276;6.390;2023-03-12T15:41:43;11.50;99.90
20998;DHT22;10657;51.276;6.390;2023-03-12T15:44:44;11.50;99.90
20998;DHT22;10657;51.276;6.390;2023-03-12T15:47:25;11.50;99.90
20998;DHT22;10657;51.276;6.390;2023-03-12T15:50:10;11.50;99.90
20998;DHT22;10657;51.276;6.390;2023-03-12T15:52:38;11.40;99.90
20998;DHT22;10657;51.276;6.390;2023-03-12T15:57:59;11.40;99.90
20998;DHT22;10657;51.276;6.390;2023-03-12T16:00:44;11.40;99.90
20998;DHT22;10657;51.276;6.390;2023-03-12T16:03:16;11.40;99.90
20998;DHT22;10657;51.276;6.390;2023-03-12T16:05:44;11.40;99.90
20998;DHT22;10657;51.276;6.390;2023-03-12T16:10:41;11.40;99.90
20998;DHT22;10657;51.276;6.390;2023-03-12T16:13:12;11.40;99.90
20998;DHT22;10657;51.276;6.390;2023-03-12T16:15:40;11.30;99.90
20998;DHT22;10657;51.276;6.390;2023-03-12T16:18:15;11.30;99.90
20998;DHT22;10657;51.276;6.390;2023-03-12T16:20:43;11.30;99.90
20998;DHT22;10657;51.276;6.390;2023-03-12T16:23:10;11.30;99.90
20998;DHT22;10657;51.276;6.390;2023-03-12T16:25:37;11.30;99.90
20998;DHT22;10657;51.276;6.390;2023-03-12T16:28:05;11.30;99.90
20998;DHT22;10657;51.276;6.390;2023-03-12T16:30:35;11.20;99.90
20998;DHT22;10657;51.276;6.390;2023-03-12T16:33:04;11.20;99.90
20998;DHT22;10657;51.276;6.390;2023-03-12T16:35:35;11.20;99.90
20998;DHT22;10657;51.276;6.390;2023-03-12T16:38:02;11.10;99.90
20998;DHT22;10657;51.276;6.390;2023-03-12T16:40:31;11.10;99.90
20998;DHT22;10657;51.276;6.390;2023-03-12T16:43:00;11.10;99.90
20998;DHT22;10657;51.276;6.390;2023-03-12T16:45:30;11.10;99.90
20998;DHT22;10657;51.276;6.390;2023-03-12T16:48:01;11.00;99.90
20998;DHT22;10657;51.276;6.390;2023-03-12T16:50:29;11.00;99.90
20998;DHT22;10657;51.276;6.390;2023-03-12T16:52:56;11.00;99.90
20998;DHT22;10657;51.276;6.390;2023-03-12T16:55:29;11.00;99.90
20998;DHT22;10657;51.276;6.390;2023-03-12T16:57:59;11.00;99.90
20998;DHT22;10657;51.276;6.390;2023-03-12T17:00:28;11.00;99.90
20998;DHT22;10657;51.276;6.390;2023-03-12T17:02:56;11.00;99.90
20998;DHT22;10657;51.276;6.390;2023-03-12T17:05:28;10.90;99.90
20998;DHT22;10657;51.276;6.390;2023-03-12T17:07:55;10.90;99.90
20998;DHT22;10657;51.276;6.390;2023-03-12T17:10:23;10.90;99.90
20998;DHT22;10657;51.276;6.390;2023-03-12T17:12:51;10.90;99.90
20998;DHT22;10657;51.276;6.390;2023-03-12T17:15:25;10.80;99.90
20998;DHT22;10657;51.276;6.390;2023-03-12T17:17:53;10.80;99.90
20998;DHT22;10657;51.276;6.390;2023-03-12T17:20:22;10.80;99.90
20998;DHT22;10657;51.276;6.390;2023-03-12T17:22:49;10.80;99.90
20998;DHT22;10657;51.276;6.390;2023-03-12T17:25:25;10.80;99.90
20998;DHT22;10657;51.276;6.390;2023-03-12T17:27:52;10.80;99.90
20998;DHT22;10657;51.276;6.390;2023-03-12T17:30:19;10.80;99.90
20998;DHT22;10657;51.276;6.390;2023-03-12T17:32:48;10.80;99.90
20998;DHT22;10657;51.276;6.390;2023-03-12T17:35:15;10.80;99.90
20998;DHT22;10657;51.276;6.390;2023-03-12T17:37:41;10.80;99.90
20998;DHT22;10657;51.276;6.390;2023-03-12T17:40:09;10.80;99.90
20998;DHT22;10657;51.276;6.390;2023-03-12T17:42:37;10.80;99.90
20998;DHT22;10657;51.276;6.390;2023-03-12T17:45:05;10.80;99.90
20998;DHT22;10657;51.276;6.390;2023-03-12T17:47:32;10.80;99.90
20998;DHT22;10657;51.276;6.390;2023-03-12T17:49:59;10.70;99.90
20998;DHT22;10657;51.276;6.390;2023-03-12T17:52:25;10.70;99.90
20998;DHT22;10657;51.276;6.390;2023-03-12T17:54:52;10.70;99.90
20998;DHT22;10657;51.276;6.390;2023-03-12T17:57:19;10.70;99.90
20998;DHT22;10657;51.276;6.390;2023-03-12T17:59:45;10.70;99.90
20998;DHT22;10657;51.276;6.390;2023-03-12T18:02:12;10.70;99.90
20998;DHT22;10657;51.276;6.390;2023-03-12T18:04:42;10.60;99.90
20998;DHT22;10657;51.276;6.390;2023-03-12T18:07:09;10.60;99.90
20998;DHT22;10657;51.276;6.390;2023-03-12T18:09:35;10.60;99.90